createdAt,value
2018-12-22T00:02:10.150Z,8.57
2018-12-22T00:04:37.747Z,9.53
2018-12-22T00:07:05.340Z,7.63
2018-12-22T00:09:32.961Z,7.50
2018-12-22T00:12:00.806Z,7.80
2018-12-22T00:14:28.408Z,8.40
2018-12-22T00:16:55.999Z,7.37
2018-12-22T00:19:23.555Z,7.10
2018-12-22T00:21:51.148Z,7.57
2018-12-22T00:24:18.700Z,7.90
2018-12-22T00:26:46.277Z,8.67
2018-12-22T00:29:13.897Z,7.63
2018-12-22T00:31:41.500Z,7.43
2018-12-22T00:34:09.073Z,7.73
2018-12-22T00:36:36.667Z,8.37
2018-12-22T00:39:05.969Z,7.67
2018-12-22T00:41:33.617Z,7.80
2018-12-22T00:44:01.217Z,7.97
2018-12-22T00:46:28.809Z,7.90
2018-12-22T00:48:56.396Z,8.20
2018-12-22T00:54:15.116Z,7.90
2018-12-22T00:56:42.736Z,7.63
2018-12-22T00:59:10.616Z,9.80
2018-12-22T01:01:38.456Z,8.77
2018-12-22T01:04:06.061Z,8.17
2018-12-22T01:06:33.777Z,7.80
2018-12-22T01:09:01.405Z,8.37
2018-12-22T01:11:28.989Z,8.03
2018-12-22T01:13:56.544Z,8.80
2018-12-22T01:16:24.165Z,8.23
2018-12-22T01:18:51.785Z,8.97
2018-12-22T01:21:19.368Z,7.97
2018-12-22T01:23:46.971Z,7.63
2018-12-22T01:26:14.560Z,8.13
2018-12-22T01:28:42.230Z,8.60
2018-12-22T01:31:09.789Z,8.23
2018-12-22T01:33:37.379Z,8.80
2018-12-22T01:36:04.925Z,7.50
2018-12-22T01:38:32.546Z,8.87
2018-12-22T01:41:00.228Z,8.10
2018-12-22T01:43:27.779Z,8.00
2018-12-22T01:45:55.374Z,8.40
2018-12-22T01:48:22.963Z,8.20
2018-12-22T01:50:50.555Z,7.70
2018-12-22T01:53:18.153Z,8.57
2018-12-22T01:55:45.714Z,7.93
2018-12-22T01:58:13.306Z,8.97
2018-12-22T02:00:40.887Z,8.47
2018-12-22T02:03:08.504Z,8.47
2018-12-22T02:05:36.120Z,8.87
2018-12-22T02:08:03.743Z,8.40
2018-12-22T02:10:31.392Z,8.87
2018-12-22T02:12:59.006Z,9.20
2018-12-22T02:15:26.564Z,8.40
2018-12-22T02:17:54.173Z,8.83
2018-12-22T02:20:21.755Z,8.23
2018-12-22T02:22:49.346Z,8.43
2018-12-22T02:25:16.932Z,8.00
2018-12-22T02:27:44.553Z,8.63
2018-12-22T02:30:12.151Z,8.47
2018-12-22T02:32:39.755Z,8.63
2018-12-22T02:35:07.336Z,8.93
2018-12-22T02:37:34.956Z,8.80
2018-12-22T02:40:03.024Z,7.73
2018-12-22T02:42:30.580Z,8.20
2018-12-22T02:44:58.170Z,8.20
2018-12-22T02:47:25.742Z,7.60
2018-12-22T02:49:53.339Z,8.97
2018-12-22T02:52:20.982Z,8.40
2018-12-22T02:54:48.538Z,8.30
2018-12-22T02:57:16.143Z,8.93
2018-12-22T02:59:43.737Z,9.17
2018-12-22T03:05:01.753Z,8.90
2018-12-22T03:07:29.472Z,9.00
2018-12-22T03:09:57.193Z,7.90
2018-12-22T03:12:24.813Z,8.03
2018-12-22T03:14:52.385Z,7.70
2018-12-22T03:17:20.037Z,7.13
2018-12-22T03:19:47.629Z,7.40
2018-12-22T03:22:15.183Z,7.33
2018-12-22T03:24:42.738Z,7.17
2018-12-22T03:27:10.327Z,7.63
2018-12-22T03:29:37.879Z,7.57
2018-12-22T03:32:05.499Z,7.07
2018-12-22T03:34:33.192Z,7.77
2018-12-22T03:37:00.780Z,6.77
2018-12-22T03:39:28.385Z,5.57
2018-12-22T03:41:55.962Z,5.27
2018-12-22T03:44:23.563Z,4.63
2018-12-22T03:46:51.152Z,5.23
2018-12-22T03:49:18.746Z,3.90
2018-12-22T03:51:46.305Z,3.67
2018-12-22T03:54:13.908Z,3.80
2018-12-22T03:56:41.461Z,3.27
2018-12-22T03:59:09.076Z,3.70
2018-12-22T04:01:36.659Z,3.50
2018-12-22T04:04:04.353Z,3.50
2018-12-22T04:06:31.911Z,3.60
2018-12-22T04:08:59.492Z,3.43
2018-12-22T04:11:27.039Z,3.67
2018-12-22T04:13:54.625Z,4.60
2018-12-22T04:16:22.173Z,6.43
2018-12-22T04:18:49.804Z,6.10
2018-12-22T04:21:17.368Z,6.37
2018-12-22T04:23:44.948Z,7.13
2018-12-22T04:26:12.554Z,6.93
2018-12-22T04:28:40.136Z,6.90
2018-12-22T04:31:07.731Z,6.70
2018-12-22T04:33:35.324Z,6.90
2018-12-22T04:36:02.904Z,6.80
2018-12-22T04:38:30.488Z,7.63
2018-12-22T04:40:58.260Z,8.47
2018-12-22T04:43:26.155Z,7.27
2018-12-22T04:45:53.714Z,7.73
2018-12-22T04:48:21.312Z,7.13
2018-12-22T04:50:48.934Z,6.80
2018-12-22T04:53:16.556Z,6.90
2018-12-22T04:55:44.110Z,5.53
2018-12-22T04:58:11.728Z,5.87
2018-12-22T05:00:39.284Z,5.07
2018-12-22T05:03:06.867Z,6.37
2018-12-22T05:05:34.424Z,5.77
2018-12-22T05:08:02.017Z,4.37
2018-12-22T05:10:29.572Z,4.03
2018-12-22T05:12:57.164Z,4.60
2018-12-22T05:15:24.713Z,4.47
2018-12-22T05:17:52.300Z,4.83
2018-12-22T05:20:19.853Z,4.70
2018-12-22T05:22:47.441Z,5.40
2018-12-22T05:25:15.027Z,5.43
2018-12-22T05:27:42.651Z,6.50
2018-12-22T05:30:10.237Z,6.70
2018-12-22T05:32:37.788Z,6.50
2018-12-22T05:35:05.537Z,5.93
2018-12-22T05:37:33.135Z,6.20
2018-12-22T05:40:00.714Z,5.33
2018-12-22T05:42:28.302Z,4.47
2018-12-22T05:44:55.851Z,4.80
2018-12-22T05:47:23.430Z,4.43
2018-12-22T05:49:51.028Z,3.80
2018-12-22T05:52:19.558Z,4.33
2018-12-22T05:54:47.100Z,4.50
2018-12-22T05:57:14.721Z,4.50
2018-12-22T05:59:42.272Z,4.67
2018-12-22T06:02:09.865Z,4.60
2018-12-22T06:04:37.444Z,4.97
2018-12-22T06:07:05.135Z,4.97
2018-12-22T06:09:32.720Z,4.50
2018-12-22T06:12:00.341Z,4.93
2018-12-22T06:14:27.935Z,4.73
2018-12-22T06:16:55.539Z,4.80
2018-12-22T06:19:23.120Z,4.60
2018-12-22T06:21:50.678Z,4.47
2018-12-22T06:24:18.275Z,4.90
2018-12-22T06:26:45.875Z,4.10
2018-12-22T06:29:13.430Z,4.17
2018-12-22T06:31:41.012Z,4.17
2018-12-22T06:34:08.555Z,4.27
2018-12-22T06:36:36.183Z,4.27
2018-12-22T06:39:05.320Z,4.10
2018-12-22T06:41:32.898Z,4.00
2018-12-22T06:44:00.496Z,4.00
2018-12-22T06:46:28.122Z,4.53
2018-12-22T06:48:55.702Z,3.27
2018-12-22T06:51:23.261Z,2.70
2018-12-22T06:53:50.846Z,2.90
2018-12-22T06:56:18.489Z,2.33
2018-12-22T06:58:46.105Z,2.60
2018-12-22T07:01:13.702Z,2.63
2018-12-22T07:03:41.256Z,2.20
2018-12-22T07:06:08.835Z,2.70
2018-12-22T07:08:36.394Z,3.03
2018-12-22T07:11:03.995Z,2.83
2018-12-22T07:13:31.628Z,3.33
2018-12-22T07:15:59.184Z,2.50
2018-12-22T07:18:26.792Z,2.70
2018-12-22T07:20:54.372Z,2.47
2018-12-22T07:23:21.926Z,2.47
2018-12-22T07:25:49.522Z,2.03
2018-12-22T07:28:17.081Z,2.27
2018-12-22T07:30:44.704Z,2.23
2018-12-22T07:33:12.257Z,2.93
2018-12-22T07:35:39.809Z,2.70
2018-12-22T07:38:07.397Z,2.80
2018-12-22T07:40:34.948Z,2.83
2018-12-22T07:43:02.528Z,2.80
2018-12-22T07:45:30.108Z,3.03
2018-12-22T07:47:57.652Z,2.93
2018-12-22T07:50:25.267Z,2.87
2018-12-22T07:52:52.831Z,2.73
2018-12-22T07:55:20.421Z,2.50
2018-12-22T07:57:47.974Z,2.50
2018-12-22T08:00:15.565Z,2.30
2018-12-22T08:02:43.155Z,2.43
2018-12-22T08:05:11.702Z,2.40
2018-12-22T08:07:39.292Z,2.10
2018-12-22T08:10:06.940Z,2.27
2018-12-22T08:12:34.518Z,2.07
2018-12-22T08:15:02.104Z,2.40
2018-12-22T08:17:29.766Z,2.27
2018-12-22T08:19:57.365Z,2.90
2018-12-22T08:22:24.948Z,2.53
2018-12-22T08:24:52.497Z,2.27
2018-12-22T08:27:20.094Z,2.37
2018-12-22T08:29:47.647Z,2.00
2018-12-22T08:32:15.231Z,2.50
2018-12-22T08:34:42.831Z,2.53
2018-12-22T08:37:10.414Z,2.77
2018-12-22T08:39:37.997Z,2.40
2018-12-22T08:42:05.601Z,2.40
2018-12-22T08:44:33.194Z,2.57
2018-12-22T08:47:00.742Z,2.90
2018-12-22T08:49:29.248Z,2.80
2018-12-22T08:51:56.791Z,2.60
2018-12-22T08:54:24.395Z,3.07
2018-12-22T08:56:51.940Z,2.90
2018-12-22T08:59:19.556Z,3.00
2018-12-22T09:01:47.166Z,2.87
2018-12-22T09:04:14.788Z,2.50
2018-12-22T09:06:42.369Z,2.80
2018-12-22T09:09:10.060Z,2.47
2018-12-22T09:11:37.652Z,2.07
2018-12-22T09:14:05.201Z,2.20
2018-12-22T09:16:32.818Z,2.23
2018-12-22T09:19:00.380Z,2.13
2018-12-22T09:21:27.998Z,2.70
2018-12-22T09:23:55.541Z,2.73
2018-12-22T09:26:23.136Z,3.17
2018-12-22T09:28:50.730Z,2.57
2018-12-22T09:31:18.320Z,2.87
2018-12-22T09:33:45.900Z,2.93
2018-12-22T09:36:13.480Z,2.93
2018-12-22T09:38:41.110Z,3.40
2018-12-22T09:41:08.660Z,2.70
2018-12-22T09:43:36.237Z,2.90
2018-12-22T09:46:03.947Z,3.10
2018-12-22T09:48:31.526Z,3.60
2018-12-22T09:50:59.149Z,3.63
2018-12-22T09:53:26.736Z,3.40
2018-12-22T09:55:54.325Z,3.20
2018-12-22T09:58:21.877Z,2.90
2018-12-22T10:00:49.481Z,2.80
2018-12-22T10:03:17.019Z,3.00
2018-12-22T10:05:44.621Z,2.90
2018-12-22T10:08:12.194Z,3.03
2018-12-22T10:10:39.754Z,2.57
2018-12-22T10:13:07.344Z,3.00
2018-12-22T10:15:34.897Z,2.23
2018-12-22T10:18:02.496Z,2.40
2018-12-22T10:20:30.047Z,2.97
2018-12-22T10:22:57.633Z,2.40
2018-12-22T10:25:25.184Z,3.10
2018-12-22T10:27:52.785Z,2.90
2018-12-22T10:30:20.363Z,2.63
2018-12-22T10:32:47.967Z,2.50
2018-12-22T10:35:19.494Z,2.40
2018-12-22T10:37:47.103Z,3.27
2018-12-22T10:40:14.692Z,2.90
2018-12-22T10:42:42.270Z,2.73
2018-12-22T10:45:10.045Z,2.87
2018-12-22T10:47:37.730Z,2.90
2018-12-22T10:50:06.304Z,2.87
2018-12-22T10:52:33.846Z,2.73
2018-12-22T10:55:01.462Z,2.80
2018-12-22T10:57:29.044Z,3.10
2018-12-22T10:59:56.735Z,3.40
2018-12-22T11:02:24.281Z,2.70
2018-12-22T11:04:51.868Z,2.80
2018-12-22T11:07:19.414Z,2.43
2018-12-22T11:09:48.081Z,3.30
2018-12-22T11:12:15.733Z,3.10
2018-12-22T11:14:43.337Z,3.07
2018-12-22T11:17:10.889Z,2.53
2018-12-22T11:19:38.427Z,2.60
2018-12-22T11:22:06.012Z,2.60
2018-12-22T11:24:33.589Z,2.60
2018-12-22T11:27:01.217Z,2.53
2018-12-22T11:29:28.828Z,2.47
2018-12-22T11:31:56.473Z,1.67
2018-12-22T11:34:24.051Z,2.10
2018-12-22T11:36:51.609Z,2.37
2018-12-22T11:39:19.211Z,2.40
2018-12-22T11:41:46.761Z,2.30
2018-12-22T11:44:14.325Z,2.07
2018-12-22T11:46:41.920Z,2.20
2018-12-22T11:49:09.582Z,2.67
2018-12-22T11:51:37.209Z,2.47
2018-12-22T11:54:04.763Z,2.27
2018-12-22T11:56:32.341Z,2.50
2018-12-22T11:58:59.933Z,1.90
2018-12-22T12:01:27.559Z,2.80
2018-12-22T12:03:55.136Z,2.40
2018-12-22T12:06:22.720Z,2.77
2018-12-22T12:08:50.315Z,2.50
2018-12-22T12:11:17.870Z,2.40
2018-12-22T12:13:45.454Z,2.47
2018-12-22T12:16:20.279Z,2.57
2018-12-22T12:18:56.339Z,2.40
2018-12-22T12:21:23.920Z,2.30
2018-12-22T12:23:51.545Z,2.03
2018-12-22T12:26:19.121Z,2.57
2018-12-22T12:28:46.709Z,2.50
2018-12-22T12:31:14.258Z,2.40
2018-12-22T12:33:41.853Z,1.97
2018-12-22T12:36:09.437Z,2.00
2018-12-22T12:38:37.018Z,2.27
2018-12-22T12:41:04.611Z,2.00
2018-12-22T12:43:32.159Z,2.20
2018-12-22T12:45:59.747Z,1.90
2018-12-22T12:48:27.297Z,2.20
2018-12-22T12:50:54.898Z,2.40
2018-12-22T12:53:22.438Z,2.33
2018-12-22T12:55:50.645Z,3.03
2018-12-22T12:58:18.229Z,2.20
2018-12-22T13:00:45.806Z,2.53
2018-12-22T13:03:13.364Z,2.20
2018-12-22T13:05:40.982Z,2.70
2018-12-22T13:08:08.538Z,2.57
2018-12-22T13:10:36.121Z,2.23
2018-12-22T13:13:10.701Z,2.73
2018-12-22T13:15:38.282Z,2.40
2018-12-22T13:18:05.974Z,2.23
2018-12-22T13:20:33.564Z,2.70
2018-12-22T13:23:01.135Z,2.37
2018-12-22T13:25:28.823Z,2.40
2018-12-22T13:27:56.397Z,2.60
2018-12-22T13:30:23.951Z,2.13
2018-12-22T13:32:51.823Z,2.90
2018-12-22T13:35:19.543Z,2.70
2018-12-22T13:37:47.141Z,2.40
2018-12-22T13:40:14.718Z,2.87
2018-12-22T13:42:42.305Z,3.30
2018-12-22T13:45:11.108Z,3.10
2018-12-22T13:47:38.926Z,1.97
2018-12-22T13:50:14.584Z,1.33
2018-12-22T13:52:42.238Z,1.30
2018-12-22T13:55:10.424Z,1.37
2018-12-22T13:57:41.588Z,1.53
2018-12-22T14:00:19.770Z,1.30
2018-12-22T14:02:47.362Z,1.50
2018-12-22T14:05:19.433Z,1.73
2018-12-22T14:07:47.013Z,2.30
2018-12-22T14:10:14.608Z,2.00
2018-12-22T14:12:42.155Z,2.20
2018-12-22T14:15:14.911Z,2.20
2018-12-22T14:17:45.677Z,2.30
2018-12-22T14:20:13.269Z,2.60
2018-12-22T14:22:40.847Z,2.70
2018-12-22T14:25:11.830Z,2.70
2018-12-22T14:27:39.385Z,3.00
2018-12-22T14:30:10.993Z,2.53
2018-12-22T14:32:38.543Z,2.93
2018-12-22T14:35:10.794Z,3.00
2018-12-22T14:37:38.348Z,3.10
2018-12-22T14:40:11.114Z,2.67
2018-12-22T14:42:38.918Z,2.60
2018-12-22T14:45:13.310Z,3.07
2018-12-22T14:47:41.721Z,2.50
2018-12-22T14:50:11.630Z,3.37
2018-12-22T14:52:39.225Z,2.40
2018-12-22T14:55:10.030Z,2.57
2018-12-22T14:57:42.407Z,2.40
2018-12-22T15:00:13.744Z,3.07
2018-12-22T15:02:41.353Z,2.43
2018-12-22T15:05:08.939Z,2.87
2018-12-22T15:07:36.524Z,2.80
2018-12-22T15:10:07.804Z,2.67
2018-12-22T15:12:35.458Z,2.63
2018-12-22T15:15:03.725Z,3.23
2018-12-22T15:17:31.348Z,2.80
2018-12-22T15:19:58.945Z,3.10
2018-12-22T15:22:26.535Z,2.57
2018-12-22T15:24:54.126Z,2.67
2018-12-22T15:27:21.737Z,2.50
2018-12-22T15:29:49.320Z,3.13
2018-12-22T15:32:16.906Z,2.60
2018-12-22T15:34:44.497Z,3.00
2018-12-22T15:37:12.082Z,2.77
2018-12-22T15:39:39.661Z,2.70
2018-12-22T15:42:07.222Z,2.57
2018-12-22T15:44:34.812Z,3.10
2018-12-22T15:47:02.368Z,2.60
2018-12-22T15:49:29.973Z,3.17
2018-12-22T15:51:57.530Z,2.70
2018-12-22T15:54:25.076Z,2.63
2018-12-22T15:56:52.673Z,1.83
2018-12-22T15:59:20.257Z,2.37
2018-12-22T16:01:47.857Z,2.20
2018-12-22T16:04:15.415Z,2.33
2018-12-22T16:06:43.004Z,2.60
2018-12-22T16:09:10.550Z,2.70
2018-12-22T16:11:38.171Z,3.00
2018-12-22T16:14:05.714Z,2.70
2018-12-22T16:16:33.300Z,3.20
2018-12-22T16:19:00.847Z,2.70
2018-12-22T16:21:28.462Z,2.87
2018-12-22T16:23:56.045Z,2.80
2018-12-22T16:26:23.640Z,2.77
2018-12-22T16:28:51.313Z,2.70
2018-12-22T16:31:18.931Z,3.00
2018-12-22T16:33:46.509Z,2.80
2018-12-22T16:36:14.134Z,3.23
2018-12-22T16:38:41.685Z,3.10
2018-12-22T16:41:09.235Z,3.07
2018-12-22T16:43:36.849Z,2.80
2018-12-22T16:46:04.436Z,2.60
2018-12-22T16:48:32.118Z,2.93
2018-12-22T16:50:59.663Z,3.23
2018-12-22T16:53:27.245Z,3.67
2018-12-22T16:55:54.827Z,2.93
2018-12-22T16:58:25.563Z,2.97
2018-12-22T17:00:59.811Z,3.03
2018-12-22T17:03:27.948Z,3.43
2018-12-22T17:05:56.421Z,3.07
2018-12-22T17:08:28.108Z,3.50
2018-12-22T17:10:57.850Z,3.20
2018-12-22T17:13:25.647Z,3.10
2018-12-22T17:15:53.527Z,3.70
2018-12-22T17:18:21.806Z,3.90
2018-12-22T17:20:52.957Z,4.10
2018-12-22T17:23:29.085Z,3.63
2018-12-22T17:25:58.555Z,3.80
2018-12-22T17:28:28.459Z,3.60
2018-12-22T17:30:55.825Z,3.83
2018-12-22T17:33:23.412Z,3.93
2018-12-22T17:35:51.791Z,4.57
2018-12-22T17:38:20.752Z,4.30
2018-12-22T17:40:48.615Z,4.60
2018-12-22T17:43:16.211Z,4.30
2018-12-22T17:45:43.817Z,4.87
2018-12-22T17:48:11.412Z,4.50
2018-12-22T17:50:39.030Z,4.53
2018-12-22T17:53:06.629Z,5.60
2018-12-22T17:55:34.181Z,5.30
2018-12-22T17:58:01.781Z,4.83
2018-12-22T18:00:29.358Z,4.70
2018-12-22T18:02:56.915Z,5.17
2018-12-22T18:05:24.500Z,4.73
2018-12-22T18:07:52.092Z,4.90
2018-12-22T18:10:19.668Z,4.60
2018-12-22T18:12:47.266Z,4.50
2018-12-22T18:15:19.128Z,4.83
2018-12-22T18:17:46.730Z,5.93
2018-12-22T18:20:14.368Z,4.87
2018-12-22T18:22:42.113Z,4.50
2018-12-22T18:25:14.000Z,4.50
2018-12-22T18:27:41.619Z,5.40
2018-12-22T18:30:11.943Z,5.00
2018-12-22T18:32:40.561Z,5.17
2018-12-22T18:35:10.320Z,5.53
2018-12-22T18:37:38.596Z,5.63
2018-12-22T18:40:12.564Z,5.83
2018-12-22T18:42:40.285Z,5.50
2018-12-22T18:45:10.425Z,4.47
2018-12-22T18:47:38.108Z,5.13
2018-12-22T18:50:11.717Z,5.23
2018-12-22T18:52:39.311Z,4.57
2018-12-22T18:55:09.332Z,4.80
2018-12-22T18:57:37.267Z,5.00
2018-12-22T19:00:20.012Z,4.93
2018-12-22T19:02:47.566Z,5.77
2018-12-22T19:05:16.302Z,5.20
2018-12-22T19:07:43.886Z,7.03
2018-12-22T19:10:14.714Z,7.87
2018-12-22T19:12:42.301Z,6.90
2018-12-22T19:15:10.085Z,5.97
2018-12-22T19:17:37.673Z,6.33
2018-12-22T19:23:06.675Z,2.10
2018-12-22T19:25:34.274Z,1.70
2018-12-22T19:28:01.855Z,2.43
2018-12-22T19:30:29.490Z,3.10
2018-12-22T19:32:57.104Z,4.50
2018-12-22T19:35:24.702Z,4.90
2018-12-22T19:37:52.283Z,5.67
2018-12-22T19:40:19.917Z,6.20
2018-12-22T19:42:47.500Z,7.40
2018-12-22T19:45:15.107Z,7.17
2018-12-22T19:47:42.676Z,7.50
2018-12-22T19:50:10.270Z,8.07
2018-12-22T19:52:37.837Z,7.13
2018-12-22T19:55:06.876Z,6.93
2018-12-22T19:57:34.466Z,6.57
2018-12-22T20:00:02.105Z,5.80
2018-12-22T20:02:29.675Z,7.03
2018-12-22T20:04:57.272Z,6.40
2018-12-22T20:07:24.834Z,7.30
2018-12-22T20:09:52.454Z,6.50
2018-12-22T20:12:20.013Z,6.10
2018-12-22T20:14:47.630Z,5.83
2018-12-22T20:17:15.224Z,6.50
2018-12-22T20:19:42.796Z,6.83
2018-12-22T20:22:10.405Z,6.20
2018-12-22T20:24:37.964Z,6.17
2018-12-22T20:27:05.567Z,6.30
2018-12-22T20:29:33.177Z,6.20
2018-12-22T20:32:00.980Z,6.30
2018-12-22T20:34:28.618Z,6.43
2018-12-22T20:36:56.179Z,6.07
2018-12-22T20:39:23.765Z,5.73
2018-12-22T20:41:51.372Z,5.33
2018-12-22T20:44:19.024Z,5.30
2018-12-22T20:46:46.599Z,5.53
2018-12-22T20:49:14.533Z,4.63
2018-12-22T20:51:42.112Z,6.17
2018-12-22T20:54:09.730Z,5.63
2018-12-22T20:56:39.100Z,5.87
2018-12-22T20:59:06.842Z,6.00
2018-12-22T21:01:34.479Z,5.80
2018-12-22T21:04:02.202Z,5.73
2018-12-22T21:06:32.317Z,6.17
2018-12-22T21:08:59.967Z,7.53
2018-12-22T21:11:27.590Z,6.90
2018-12-22T21:13:55.531Z,6.40
2018-12-22T21:16:23.196Z,6.13
2018-12-22T21:18:50.824Z,6.80
2018-12-22T21:21:18.399Z,5.73
2018-12-22T21:23:45.994Z,6.10
2018-12-22T21:26:13.567Z,5.53
2018-12-22T21:28:41.426Z,6.60
2018-12-22T21:31:09.029Z,5.80
2018-12-22T21:33:36.596Z,5.37
2018-12-22T21:36:04.206Z,5.47
2018-12-22T21:38:31.777Z,5.03
2018-12-22T21:40:59.561Z,4.77
2018-12-22T21:43:27.406Z,4.30
2018-12-22T21:45:54.998Z,4.37
2018-12-22T21:48:22.661Z,4.20
2018-12-22T21:50:50.284Z,4.37
2018-12-22T21:53:17.847Z,4.17
2018-12-22T21:55:45.491Z,3.90
2018-12-22T21:58:13.110Z,3.70
2018-12-22T22:00:40.679Z,4.03
2018-12-22T22:03:08.495Z,3.53
2018-12-22T22:05:36.107Z,3.37
2018-12-22T22:08:03.807Z,3.60
2018-12-22T22:10:31.489Z,3.20
2018-12-22T22:12:59.111Z,2.67
2018-12-22T22:15:26.707Z,3.07
2018-12-22T22:17:54.303Z,2.97
2018-12-22T22:20:21.913Z,2.77
2018-12-22T22:22:49.512Z,2.60
2018-12-22T22:25:17.200Z,2.83
2018-12-22T22:27:44.782Z,3.13
2018-12-22T22:30:12.380Z,3.07
2018-12-22T22:32:39.941Z,2.93
2018-12-22T22:35:07.636Z,2.77
2018-12-22T22:37:35.226Z,3.17
2018-12-22T22:40:03.334Z,2.73
2018-12-22T22:42:30.945Z,2.80
2018-12-22T22:44:58.551Z,2.80
2018-12-22T22:47:26.117Z,2.70
2018-12-22T22:49:53.712Z,2.53
2018-12-22T22:52:21.351Z,2.80
2018-12-22T22:54:48.921Z,3.00
2018-12-22T22:57:16.519Z,2.90
2018-12-22T22:59:44.164Z,3.33
2018-12-22T23:02:11.753Z,4.87
2018-12-22T23:04:39.354Z,4.60
2018-12-22T23:07:06.912Z,4.77
2018-12-22T23:09:34.521Z,4.97
2018-12-22T23:12:02.281Z,4.10
2018-12-22T23:14:29.867Z,4.77
2018-12-22T23:16:57.483Z,6.13
2018-12-22T23:19:25.110Z,6.83
2018-12-22T23:21:52.728Z,7.77
2018-12-22T23:24:20.589Z,7.90
2018-12-22T23:26:48.148Z,8.13
2018-12-22T23:29:15.762Z,8.63
2018-12-22T23:31:43.327Z,8.50
2018-12-22T23:34:11.101Z,7.70
2018-12-22T23:36:38.780Z,7.73
2018-12-22T23:39:06.496Z,7.87
2018-12-22T23:41:34.133Z,7.33
2018-12-22T23:44:01.753Z,7.10
2018-12-22T23:46:29.357Z,6.63
2018-12-22T23:48:56.967Z,6.80
2018-12-22T23:51:24.574Z,5.10
2018-12-22T23:53:52.164Z,6.77
2018-12-22T23:56:19.766Z,5.77
2018-12-22T23:58:47.368Z,5.90
